Time;durP1;ratioP1;P1;durP2;ratioP2;P2;SDS_P1;SDS_P2;PMS_P1;PMS_P2;Temp;Humidity;BMP_temperature;BMP_pressure;BME280_temperature;BME280_humidity;BME280_pressure;Samples;Min_cycle;Max_cycle;Signal;HPM_P1;HPM_P2
2022/03/03 00:04:25;;;;;;;11.50;8.52;;;;;;;4.85;100.00;99804.78;10292660;28;20089;-74
2022/03/03 00:09:26;;;;;;;14.52;8.88;;;;;;;4.82;100.00;99787.47;10291207;28;20117;-74
2022/03/03 00:14:27;;;;;;;13.13;8.55;;;;;;;4.91;100.00;99785.78;10291899;28;20129;-74
2022/03/03 00:19:27;;;;;;;11.50;8.32;;;;;;;5.03;100.00;99803.03;10290723;28;20027;-74
2022/03/03 00:24:28;;;;;;;11.48;7.03;;;;;;;3.68;100.00;99589.56;10291129;28;20031;-74
2022/03/03 00:29:29;;;;;;;10.38;6.93;;;;;;;4.85;100.00;99787.19;10292040;28;20077;-74
2022/03/03 00:34:30;;;;;;;10.98;7.35;;;;;;;4.83;100.00;99799.66;10291099;28;20053;-74
2022/03/03 00:39:31;;;;;;;11.75;7.43;;;;;;;4.87;100.00;99800.19;10291241;28;20030;-74
2022/03/03 00:44:31;;;;;;;10.52;7.28;;;;;;;4.86;100.00;99806.44;10291388;28;20050;-73
2022/03/03 00:49:32;;;;;;;11.90;8.25;;;;;;;4.99;100.00;99799.03;10290519;28;20042;-74
2022/03/03 00:54:33;;;;;;;12.20;7.50;;;;;;;4.14;100.00;99671.16;10290303;28;20097;-74
2022/03/03 00:59:34;;;;;;;10.43;6.68;;;;;;;4.62;100.00;99754.31;10294180;28;20386;-73
2022/03/03 01:04:35;;;;;;;11.48;7.47;;;;;;;4.67;100.00;99745.00;10297874;28;20116;-76
2022/03/03 01:09:36;;;;;;;10.23;7.00;;;;;;;4.86;100.00;99772.22;10299004;28;20034;-74
2022/03/03 01:14:36;;;;;;;11.45;7.20;;;;;;;4.73;100.00;99746.25;10297854;28;20098;-74
2022/03/03 01:19:37;;;;;;;10.02;6.55;;;;;;;4.68;100.00;99733.50;10298316;28;20038;-73
2022/03/03 01:24:38;;;;;;;11.38;6.90;;;;;;;4.69;100.00;99727.25;10297610;28;20031;-73
2022/03/03 01:29:39;;;;;;;10.40;6.47;;;;;;;4.57;100.00;99692.41;10296965;28;20443;-74
2022/03/03 01:34:40;;;;;;;11.98;6.55;;;;;;;4.67;100.00;99704.72;10296846;28;20043;-73
2022/03/03 01:39:40;;;;;;;9.10;5.95;;;;;;;4.62;100.00;99699.06;10297149;28;20479;-73
2022/03/03 01:44:43;;;;;;;9.50;6.47;;;;;;;3.87;100.00;99578.97;10295241;28;20053;-74
2022/03/03 01:49:45;;;;;;;11.10;6.90;;;;;;;3.68;100.00;99537.03;10297183;28;20031;-74
2022/03/03 01:54:46;;;;;;;10.88;6.57;;;;;;;3.88;100.00;99550.88;10295839;28;20467;-74
2022/03/03 01:59:48;;;;;;;10.75;7.03;;;;;;;3.99;100.00;99563.84;10296241;28;20030;-74
2022/03/03 02:04:49;;;;;;;10.35;6.82;;;;;;;4.31;100.00;99607.31;10296810;28;20039;-74
2022/03/03 02:09:50;;;;;;;10.82;7.40;;;;;;;3.75;100.00;99492.63;10295351;28;20475;-75
2022/03/03 02:14:51;;;;;;;11.48;7.30;;;;;;;4.38;100.00;99591.75;10296287;28;20057;-75
2022/03/03 02:19:51;;;;;;;10.27;7.32;;;;;;;3.93;100.00;99488.22;10294895;28;20093;-74
2022/03/03 02:24:52;;;;;;;17.30;8.13;;;;;;;4.49;100.00;99595.03;10294764;28;20057;-74
2022/03/03 02:29:53;;;;;;;20.88;11.18;;;;;;;4.62;100.00;99593.84;10293960;28;20031;-76
2022/03/03 02:34:54;;;;;;;18.52;11.13;;;;;;;4.66;100.00;99589.94;10294828;28;20057;-75
2022/03/03 02:39:55;;;;;;;18.48;10.85;;;;;;;4.35;100.00;99538.50;10312404;28;20038;-74
2022/03/03 02:44:56;;;;;;;12.80;8.48;;;;;;;4.06;100.00;99478.19;10307484;28;20069;-74
2022/03/03 02:49:57;;;;;;;16.92;10.73;;;;;;;4.82;100.00;99595.38;10305203;28;20391;-73
2022/03/03 02:54:58;;;;;;;13.82;8.20;;;;;;;4.76;100.00;99564.41;10294398;28;20459;-74
2022/03/03 02:59:59;;;;;;;19.55;9.13;;;;;;;4.75;100.00;99544.31;10294158;28;20038;-74
2022/03/03 03:05:00;;;;;;;14.95;9.35;;;;;;;4.51;100.00;99503.63;10293856;28;20039;-74
2022/03/03 03:10:02;;;;;;;86.18;11.70;;;;;;;4.67;100.00;99523.19;10315907;28;20390;-74
2022/03/03 03:15:04;;;;;;;126.75;11.75;;;;;;;4.78;100.00;99565.06;10326890;28;20406;-74
2022/03/03 03:20:08;;;;;;;192.63;12.40;;;;;;;4.80;100.00;99573.63;10332883;28;20069;-74
2022/03/03 03:25:12;;;;;;;85.38;11.88;;;;;;;4.96;100.00;99589.56;10332200;28;20037;-74
2022/03/03 03:30:13;;;;;;;82.13;11.50;;;;;;;5.14;100.00;99612.44;10333010;28;20034;-74
2022/03/03 03:35:14;;;;;;;93.60;10.60;;;;;;;5.17;100.00;99596.34;10332766;28;20112;-74
2022/03/03 03:40:16;;;;;;;44.70;10.88;;;;;;;4.85;100.00;99521.41;10332559;28;20034;-74
2022/03/03 03:45:17;;;;;;;84.20;11.30;;;;;;;4.93;100.00;99536.41;10332870;28;20054;-75
2022/03/03 03:50:18;;;;;;;72.07;11.50;;;;;;;5.11;100.00;99567.97;10332510;28;20030;-74
2022/03/03 03:55:18;;;;;;;44.63;10.18;;;;;;;4.36;100.00;99431.50;10332265;28;20046;-74
2022/03/03 04:00:19;;;;;;;64.63;10.73;;;;;;;5.01;100.00;99518.06;10326856;28;20379;-74
2022/03/03 04:05:21;;;;;;;93.38;10.73;;;;;;;4.40;100.00;99393.44;10371996;28;20351;-75
2022/03/03 04:10:21;;;;;;;91.07;11.30;;;;;;;4.99;100.00;99504.22;10355915;28;20054;-76
2022/03/03 04:15:22;;;;;;;97.60;11.35;;;;;;;4.89;100.00;99458.75;10308555;28;20030;-73
2022/03/03 04:20:24;;;;;;;159.32;13.15;;;;;;;4.49;100.00;99382.00;10290041;28;20035;-75
2022/03/03 04:25:25;;;;;;;70.55;13.05;;;;;;;5.34;100.00;99490.16;10290395;28;20042;-73
2022/03/03 04:30:26;;;;;;;145.45;15.20;;;;;;;5.07;100.00;99454.25;10290030;28;20030;-74
2022/03/03 04:35:28;;;;;;;56.35;11.60;;;;;;;5.08;100.00;99420.88;10307387;28;20502;-74
2022/03/03 04:40:29;;;;;;;74.15;12.02;;;;;;;5.40;100.00;99465.00;10298536;28;20432;-75
2022/03/03 04:45:30;;;;;;;116.38;12.10;;;;;;;4.97;100.00;99379.84;10299965;28;20090;-76
2022/03/03 04:50:31;;;;;;;71.97;12.18;;;;;;;5.70;100.00;99463.66;10301394;28;20118;-73
2022/03/03 04:55:32;;;;;;;30.08;9.95;;;;;;;5.46;100.00;99388.81;10328293;28;20145;-74
2022/03/03 05:00:33;;;;;;;15.13;9.40;;;;;;;5.48;100.00;99376.31;10336760;28;20102;-75
2022/03/03 05:05:33;;;;;;;18.05;10.88;;;;;;;5.45;100.00;99334.50;10339116;28;20034;-75
2022/03/03 05:10:34;;;;;;;14.15;9.13;;;;;;;5.63;100.00;99346.72;10338366;28;20062;-76
2022/03/03 05:15:35;;;;;;;12.02;8.00;;;;;;;5.13;100.00;99260.66;10338783;28;20125;-75
2022/03/03 05:20:38;;;;;;;15.70;8.85;;;;;;;5.97;100.00;99398.56;10338210;28;20030;-75
2022/03/03 05:25:39;;;;;;;13.30;7.90;;;;;;;6.00;100.00;99374.50;10337917;28;20038;-75
2022/03/03 05:30:39;;;;;;;17.55;10.05;;;;;;;5.25;100.00;99262.81;10337903;28;20180;-75
2022/03/03 05:35:41;;;;;;;18.25;8.80;;;;;;;6.01;100.00;99390.16;10336705;28;20038;-75
2022/03/03 05:40:42;;;;;;;16.60;9.45;;;;;;;5.71;100.00;99330.91;10336739;28;20049;-74
2022/03/03 05:45:43;;;;;;;16.48;9.52;;;;;;;6.01;100.00;99379.59;10336033;28;20062;-74
2022/03/03 05:50:45;;;;;;;20.98;10.38;;;;;;;5.98;100.00;99385.19;10336778;28;20034;-74
2022/03/03 05:55:50;;;;;;;18.40;9.23;;;;;;;5.27;100.00;99275.84;10336684;28;20044;-75
2022/03/03 06:00:56;;;;;;;17.05;8.80;;;;;;;5.87;100.00;99349.41;10336662;28;20027;-75
2022/03/03 06:06:04;;;;;;;13.63;8.75;;;;;;;5.14;100.00;99243.84;10335862;28;20234;-75
2022/03/03 06:11:12;;;;;;;14.60;8.30;;;;;;;5.93;100.00;99361.97;10336322;28;20088;-75
2022/03/03 06:16:20;;;;;;;11.88;6.55;;;;;;;6.05;100.00;99349.31;10335452;28;20042;-75
2022/03/03 06:21:21;;;;;;;11.00;6.18;;;;;;;5.38;100.00;99201.78;10336187;28;20035;-75
2022/03/03 06:26:22;;;;;;;9.25;4.72;;;;;;;6.06;100.00;99290.31;10335481;28;20041;-75
2022/03/03 06:31:22;;;;;;;12.43;6.55;;;;;;;6.06;100.00;99290.31;10335263;28;20077;-75
2022/03/03 06:36:23;;;;;;;11.98;6.30;;;;;;;5.48;100.00;99176.13;10335236;28;20497;-75
2022/03/03 06:41:25;;;;;;;10.57;5.35;;;;;;;5.67;100.00;99229.47;10334938;28;20034;-76
2022/03/03 06:46:26;;;;;;;8.52;5.53;;;;;;;6.37;100.00;99303.66;10335616;28;20104;-75
2022/03/03 06:51:33;;;;;;;8.38;5.00;;;;;;;5.59;100.00;99166.25;10334604;28;20034;-74
2022/03/03 06:56:35;;;;;;;9.60;4.93;;;;;;;6.13;100.00;99240.38;10333457;28;20564;-75
2022/03/03 07:01:40;;;;;;;6.97;3.95;;;;;;;6.37;100.00;99240.34;10333734;28;20037;-75
2022/03/03 07:06:42;;;;;;;5.38;3.50;;;;;;;6.48;100.00;99241.81;10333550;28;20065;-74
2022/03/03 07:11:45;;;;;;;6.43;4.00;;;;;;;6.51;100.00;99209.81;10333560;28;20156;-75
2022/03/03 07:17:01;;;;;;;5.95;3.15;;;;;;;6.61;100.00;99175.28;10333586;28;20038;-74
2022/03/03 07:22:17;;;;;;;7.20;4.40;;;;;;;6.55;100.00;99158.34;10332769;28;20030;-74
2022/03/03 07:27:23;;;;;;;6.97;4.18;;;;;;;6.55;100.00;99147.81;10332745;28;20471;-75
2022/03/03 07:32:33;;;;;;;7.95;5.05;;;;;;;5.80;100.00;99026.88;10332390;28;20073;-74
2022/03/03 07:37:46;;;;;;;8.70;5.30;;;;;;;6.51;100.00;99172.03;10332457;28;20030;-74
2022/03/03 07:42:47;;;;;;;9.13;4.43;;;;;;;6.50;100.00;99157.22;10333091;28;20133;-75
2022/03/03 07:47:50;;;;;;;6.32;4.25;;;;;;;6.59;100.00;99169.38;10332703;28;20090;-74
2022/03/03 07:52:53;;;;;;;8.70;4.40;;;;;;;6.47;100.00;99137.28;10332004;28;20088;-74
2022/03/03 07:58:02;;;;;;;7.65;4.20;;;;;;;6.69;100.00;99151.50;10331851;28;20070;-74
2022/03/03 08:03:09;;;;;;;8.77;4.53;;;;;;;6.72;100.00;99153.81;10331655;28;20034;-74
2022/03/03 08:08:15;;;;;;;8.60;4.53;;;;;;;6.64;100.00;99143.28;10331322;28;20430;-75
2022/03/03 08:13:17;;;;;;;6.22;3.67;;;;;;;5.77;100.00;99000.88;10332074;28;20030;-75
2022/03/03 08:18:20;;;;;;;9.18;3.75;;;;;;;6.48;100.00;99130.19;10331552;28;20034;-74
2022/03/03 08:23:25;;;;;;;5.85;3.22;;;;;;;6.39;100.00;99074.00;10332060;28;20038;-75
2022/03/03 08:28:26;;;;;;;7.20;3.22;;;;;;;6.56;100.00;99072.09;10331196;28;20038;-75
2022/03/03 08:34:02;;;;;;;6.65;3.00;;;;;;;6.53;100.00;99035.50;10331578;28;20034;-75
2022/03/03 08:39:06;;;;;;;3.63;2.00;;;;;;;5.73;100.00;98888.91;10332073;28;20034;-75
2022/03/03 08:44:08;;;;;;;6.53;2.50;;;;;;;6.58;100.00;99012.03;10331329;28;20046;-76
2022/03/03 08:49:13;;;;;;;10.02;2.70;;;;;;;6.58;100.00;98964.56;10330803;28;20043;-76
2022/03/03 08:54:14;;;;;;;3.35;1.98;;;;;;;6.79;100.00;98971.81;10330683;28;20092;-75
2022/03/03 08:59:15;;;;;;;3.60;2.08;;;;;;;6.86;100.00;98994.69;10330797;28;20034;-75
2022/03/03 09:04:15;;;;;;;6.32;3.28;;;;;;;6.65;100.00;98948.84;10331095;28;20042;-76
2022/03/03 09:09:16;;;;;;;5.95;2.90;;;;;;;6.32;100.00;98888.44;10330414;28;20077;-75
2022/03/03 09:14:17;;;;;;;6.10;3.42;;;;;;;6.13;100.00;98874.72;10330321;28;20038;-75
2022/03/03 09:19:18;;;;;;;8.07;3.75;;;;;;;6.77;100.00;98984.38;10332559;28;20037;-75
2022/03/03 09:24:19;;;;;;;5.18;3.30;;;;;;;6.37;100.00;98902.72;10338368;28;20030;-77
2022/03/03 09:29:20;;;;;;;6.72;3.20;;;;;;;6.79;100.00;98951.53;10338508;28;20034;-76
2022/03/03 09:34:21;;;;;;;6.72;3.50;;;;;;;6.77;100.00;98928.97;10336832;28;20046;-76
2022/03/03 09:39:23;;;;;;;7.78;4.38;;;;;;;6.62;100.00;98891.97;10336815;28;20037;-75
2022/03/03 09:44:26;;;;;;;7.53;3.70;;;;;;;6.45;100.00;98869.38;10336976;28;20081;-76
2022/03/03 09:49:27;;;;;;;5.10;3.25;;;;;;;6.74;100.00;98916.13;10336451;28;20030;-75
2022/03/03 09:54:27;;;;;;;6.97;3.88;;;;;;;6.74;100.00;98893.19;10336091;28;20089;-75
2022/03/03 09:59:28;;;;;;;7.38;3.95;;;;;;;6.35;100.00;98812.41;10336556;28;20058;-75
2022/03/03 10:04:29;;;;;;;6.25;3.80;;;;;;;6.86;100.00;98875.09;10336718;28;20462;-75
2022/03/03 10:09:30;;;;;;;7.80;3.42;;;;;;;7.03;100.00;98883.66;10336898;28;20451;-75
2022/03/03 10:14:38;;;;;;;6.70;4.22;;;;;;;7.07;100.00;98862.00;10335443;28;20160;-74
2022/03/03 10:19:52;;;;;;;8.00;4.70;;;;;;;7.07;100.00;98805.75;10336468;28;20037;-74
2022/03/03 10:24:54;;;;;;;7.40;4.10;;;;;;;7.25;100.00;98803.53;10335302;28;20065;-75
2022/03/03 10:29:55;;;;;;;7.07;4.65;;;;;;;7.24;100.00;98788.69;10335209;28;20482;-74
2022/03/03 10:35:11;;;;;;;6.82;3.95;;;;;;;7.00;100.00;98733.53;10334552;28;20133;-75
2022/03/03 10:40:16;;;;;;;9.00;4.75;;;;;;;6.75;100.00;98681.06;10333835;28;20038;-75
2022/03/03 10:45:19;;;;;;;8.68;5.07;;;;;;;7.19;100.00;98725.03;10334377;28;20047;-74
2022/03/03 10:50:20;;;;;;;10.10;5.05;;;;;;;7.38;100.00;98746.56;10334679;28;20498;-74
2022/03/03 10:55:21;;;;;;;7.25;4.57;;;;;;;7.58;100.00;98729.09;10333829;28;20030;-74
2022/03/03 11:00:25;;;;;;;8.93;4.65;;;;;;;6.99;100.00;98623.66;10333804;28;20033;-75
2022/03/03 11:05:28;;;;;;;10.05;4.65;;;;;;;7.28;100.00;98700.16;10333357;28;20030;-75
2022/03/03 11:10:31;;;;;;;10.27;4.78;;;;;;;7.12;100.00;98703.03;10333410;28;20031;-74
2022/03/03 11:15:32;;;;;;;8.93;5.67;;;;;;;7.32;100.00;98735.75;10333169;28;20046;-75
2022/03/03 11:20:33;;;;;;;9.55;5.05;;;;;;;6.98;100.00;98686.22;10334167;28;20414;-74
2022/03/03 11:25:36;;;;;;;9.48;5.68;;;;;;;7.07;100.00;98668.44;10333541;28;20030;-75
2022/03/03 11:30:37;;;;;;;12.40;6.13;;;;;;;7.14;100.00;98676.44;10333626;28;20065;-74
2022/03/03 11:35:52;;;;;;;8.85;5.20;;;;;;;7.07;100.00;98663.16;10332890;28;20463;-74
2022/03/03 11:40:57;;;;;;;13.07;7.13;;;;;;;7.03;100.00;98662.72;10332318;28;20438;-75
2022/03/03 11:45:59;;;;;;;14.93;7.40;;;;;;;6.87;100.00;98604.84;10332930;28;20137;-74
2022/03/03 11:51:34;;;;;;;14.13;8.40;;;;;;;7.04;100.00;98630.03;10332138;28;20050;-75
2022/03/03 11:56:56;;;;;;;13.98;8.88;;;;;;;6.81;100.00;98577.38;10331946;28;20177;-74
2022/03/03 12:01:57;;;;;;;13.57;8.20;;;;;;;6.88;100.00;98585.38;10332284;28;20042;-75
2022/03/03 12:06:58;;;;;;;13.52;8.77;;;;;;;6.37;100.00;98464.06;10331607;28;20430;-74
2022/03/03 12:12:19;;;;;;;11.27;7.03;;;;;;;7.07;100.00;98558.34;10332040;28;20104;-75
2022/03/03 12:17:43;;;;;;;16.05;8.20;;;;;;;7.06;100.00;98524.25;10331574;28;20084;-75
2022/03/03 12:23:02;;;;;;;;;;;;;;;7.15;100.00;98549.50;10332337;28;20444;-75
2022/03/03 12:28:34;;;;;;;16.70;9.65;;;;;;;7.08;100.00;98538.03;10331782;28;20375;-75
2022/03/03 12:33:35;;;;;;;16.00;9.18;;;;;;;7.15;100.00;98549.50;10331499;28;20076;-75
2022/03/03 12:38:37;;;;;;;17.15;8.80;;;;;;;7.05;100.00;98530.50;10331308;28;20050;-76
2022/03/03 12:43:38;;;;;;;14.48;9.20;;;;;;;7.22;100.00;98565.41;10329533;28;20046;-76
2022/03/03 12:48:41;;;;;;;15.77;9.77;;;;;;;7.29;100.00;98590.84;10331229;28;20042;-74
2022/03/03 12:53:47;;;;;;;18.15;8.68;;;;;;;7.31;100.00;98575.63;10331684;28;20042;-74
2022/03/03 12:58:48;;;;;;;17.73;9.25;;;;;;;7.28;100.00;98572.56;10321445;28;20117;-74
2022/03/03 13:03:50;;;;;;;17.60;9.27;;;;;;;7.08;100.00;98548.59;10331642;28;20042;-76
2022/03/03 13:08:59;;;;;;;15.15;9.00;;;;;;;7.07;100.00;98545.16;10338656;28;20417;-76
2022/03/03 13:14:05;;;;;;;15.45;8.75;;;;;;;6.48;100.00;98425.84;10338089;28;20054;-76
2022/03/03 13:19:06;;;;;;;15.50;8.52;;;;;;;6.90;100.00;98488.34;10339189;28;20038;-76
2022/03/03 13:24:09;;;;;;;12.68;8.93;;;;;;;7.34;100.00;98526.06;10337483;28;20074;-77
2022/03/03 13:29:24;;;;;;;16.02;9.15;;;;;;;7.06;100.00;98493.38;10337800;28;20046;-76
2022/03/03 13:34:28;;;;;;;16.55;10.32;;;;;;;6.37;100.00;98424.50;10337830;28;20038;-76
2022/03/03 13:39:34;;;;;;;17.17;10.10;;;;;;;6.92;100.00;98536.50;10336969;28;20042;-76
2022/03/03 13:44:37;;;;;;;22.38;10.82;;;;;;;7.01;100.00;98576.78;10336718;28;20042;-77
2022/03/03 13:49:50;;;;;;;23.27;11.68;;;;;;;7.07;100.00;98541.69;10336849;28;20383;-76
2022/03/03 13:55:15;;;;;;;20.13;10.07;;;;;;;7.11;100.00;98521.81;10335518;28;20153;-75
2022/03/03 14:00:23;;;;;;;16.35;8.73;;;;;;;5.95;100.00;98328.59;10296617;28;20027;-73
2022/03/03 14:05:49;;;;;;;16.50;9.10;;;;;;;6.91;100.00;98489.16;10310680;28;20171;-76
2022/03/03 14:10:55;;;;;;;17.02;8.65;;;;;;;6.74;100.00;98484.16;10329431;28;20042;-76
2022/03/03 14:15:57;;;;;;;16.35;9.05;;;;;;;6.20;100.00;98394.97;10331227;28;20042;-73
2022/03/03 14:20:58;;;;;;;18.08;10.23;;;;;;;6.59;100.00;98444.63;10334416;28;20023;-75
2022/03/03 14:26:02;;;;;;;18.73;10.32;;;;;;;6.67;100.00;98472.72;10318981;28;20047;-74
2022/03/03 14:31:03;;;;;;;22.00;9.97;;;;;;;6.76;100.00;98484.78;10294788;28;20117;-73
2022/03/03 14:36:05;;;;;;;17.67;10.27;;;;;;;6.12;100.00;98352.88;10295482;28;20035;-78
2022/03/03 14:41:07;;;;;;;18.67;10.95;;;;;;;6.73;100.00;98442.94;10323306;28;20049;-71
2022/03/03 14:46:09;;;;;;;17.77;9.98;;;;;;;6.68;100.00;98437.41;10328344;28;20634;-72
2022/03/03 14:51:10;;;;;;;19.95;10.05;;;;;;;6.76;100.00;98463.66;10327365;28;20066;-75
2022/03/03 14:56:13;;;;;;;17.80;9.50;;;;;;;6.00;100.00;98328.03;10333829;28;20208;-73
2022/03/03 15:01:13;;;;;;;17.50;9.50;;;;;;;6.53;100.00;98463.84;10324120;28;20058;-73
2022/03/03 15:06:14;;;;;;;15.68;8.98;;;;;;;6.67;100.00;98487.72;10306296;28;20145;-73
2022/03/03 15:11:15;;;;;;;16.13;9.52;;;;;;;6.69;100.00;98510.28;10329165;28;20113;-75
2022/03/03 15:16:16;;;;;;;15.95;9.05;;;;;;;6.04;100.00;98389.91;10326381;28;20034;-73
2022/03/03 15:21:17;;;;;;;16.67;10.05;;;;;;;6.82;100.00;98544.72;10324025;28;20034;-73
2022/03/03 15:26:18;;;;;;;15.77;9.20;;;;;;;6.51;100.00;98491.41;10366829;28;20037;-73
2022/03/03 15:31:18;;;;;;;16.60;9.40;;;;;;;6.35;100.00;98474.81;10342491;28;20524;-74
2022/03/03 15:41:39;;;;;;;14.48;8.48;;;;;;;5.63;100.00;98409.69;10302693;28;20035;-73
2022/03/03 15:46:39;;;;;;;15.65;8.65;;;;;;;6.94;100.00;98640.06;10292571;28;20065;-74
2022/03/03 15:51:44;;;;;;;14.70;8.07;;;;;;;6.89;100.00;98653.00;10307271;28;20131;-73
2022/03/03 15:56:47;;;;;;;12.50;8.10;;;;;;;6.86;100.00;98656.81;10324110;28;20522;-74
2022/03/03 16:01:48;;;;;;;17.13;9.00;;;;;;;6.84;100.00;98658.81;10331665;28;20058;-74
2022/03/03 16:06:52;;;;;;;18.05;10.90;;;;;;;6.86;100.00;98648.91;10331762;28;20030;-75
2022/03/03 16:11:53;;;;;;;;;;;;;;;6.95;100.00;98651.44;10331944;28;20092;-75
2022/03/03 16:16:59;;;;;;;27.60;18.23;;;;;;;6.82;100.00;98638.91;10326181;28;19937;-75
2022/03/03 16:22:00;;;;;;;21.08;15.88;;;;;;;6.02;100.00;98519.25;10323147;28;20050;-75
2022/03/03 16:27:01;;;;;;;21.08;14.05;;;;;;;5.86;100.00;98507.06;10331200;28;20034;-75
2022/03/03 16:32:11;;;;;;;16.65;10.43;;;;;;;6.14;100.00;98546.78;10327157;28;20049;-75
2022/03/03 16:37:15;;;;;;;16.40;9.75;;;;;;;5.98;100.00;98533.78;10333424;28;20184;-75
2022/03/03 16:42:16;;;;;;;16.70;9.82;;;;;;;6.69;100.00;98644.03;10309767;28;20042;-76
2022/03/03 16:47:18;;;;;;;14.80;9.20;;;;;;;6.54;100.00;98638.78;10317145;28;20031;-75
2022/03/03 16:52:19;;;;;;;13.73;8.50;;;;;;;6.64;100.00;98663.03;10299006;28;20043;-76
2022/03/03 16:57:21;;;;;;;12.40;8.55;;;;;;;6.51;100.00;98642.59;10298891;28;20129;-76
2022/03/03 17:02:22;;;;;;;12.57;7.85;;;;;;;5.72;100.00;98503.44;10333899;28;20084;-77
2022/03/03 17:07:23;;;;;;;11.88;7.90;;;;;;;6.62;100.00;98654.50;10332898;28;20371;-76
2022/03/03 17:12:24;;;;;;;10.80;7.03;;;;;;;6.00;100.00;98541.53;10335146;28;20053;-77
2022/03/03 17:17:25;;;;;;;11.45;7.50;;;;;;;6.46;100.00;98591.38;10335172;28;20049;-76
2022/03/03 17:22:26;;;;;;;12.27;8.80;;;;;;;6.28;100.00;98579.44;10335346;28;20031;-76
2022/03/03 17:27:27;;;;;;;16.77;8.63;;;;;;;6.37;100.00;98612.59;10336822;28;20041;-76
2022/03/03 17:32:28;;;;;;;11.82;7.85;;;;;;;6.55;100.00;98651.78;10336180;28;20029;-76
2022/03/03 17:37:29;;;;;;;12.73;8.27;;;;;;;6.18;100.00;98558.59;10320088;28;20506;-76
2022/03/03 17:42:30;;;;;;;12.50;7.05;;;;;;;6.28;100.00;98604.94;10335302;28;20082;-76
2022/03/03 17:47:32;;;;;;;10.50;6.85;;;;;;;6.25;100.00;98624.63;10319495;28;20410;-77
2022/03/03 17:52:33;;;;;;;13.88;10.15;;;;;;;5.46;100.00;98495.16;10295586;28;20043;-76
2022/03/03 17:57:34;;;;;;;19.27;13.20;;;;;;;5.77;100.00;98546.84;10312280;28;20046;-76
2022/03/03 18:02:35;;;;;;;13.13;8.63;;;;;;;5.66;100.00;98559.47;10300683;28;20030;-76
2022/03/03 18:07:36;;;;;;;24.25;17.67;;;;;;;5.06;100.00;98470.88;10326944;28;20027;-76
2022/03/03 18:12:37;;;;;;;12.77;6.35;;;;;;;5.40;100.00;98546.72;10319929;28;20047;-76
2022/03/03 18:17:38;;;;;;;10.35;5.80;;;;;;;5.77;100.00;98621.44;10316443;28;20370;-76
2022/03/03 18:22:39;;;;;;;9.13;5.40;;;;;;;5.57;100.00;98613.25;10309568;28;20491;-76
2022/03/03 18:27:40;;;;;;;9.95;5.47;;;;;;;5.61;100.00;98624.22;10295635;28;20052;-76
2022/03/03 18:32:41;;;;;;;9.70;5.75;;;;;;;5.72;100.00;98631.72;10293882;28;20035;-76
2022/03/03 18:37:42;;;;;;;8.75;5.65;;;;;;;5.48;100.00;98601.97;10295028;28;20035;-76
2022/03/03 18:42:43;;;;;;;8.23;5.95;;;;;;;5.63;100.00;98624.88;10294782;28;20141;-75
2022/03/03 18:47:44;;;;;;;8.30;5.22;;;;;;;4.40;100.00;98428.50;10294567;28;20503;-75
2022/03/03 18:52:45;;;;;;;8.50;5.40;;;;;;;4.26;100.00;98392.44;10294676;28;20129;-76
2022/03/03 18:57:45;;;;;;;10.68;5.30;;;;;;;4.67;100.00;98471.03;10293754;28;20039;-76
2022/03/03 19:02:47;;;;;;;7.80;5.18;;;;;;;5.38;100.00;98596.09;10321502;28;20034;-75
2022/03/03 19:07:48;;;;;;;8.50;5.55;;;;;;;5.00;100.00;98559.22;10306868;28;20074;-76
2022/03/03 19:12:48;;;;;;;9.27;5.30;;;;;;;4.45;100.00;98472.66;10293621;28;20487;-76
2022/03/03 19:17:49;;;;;;;8.15;5.32;;;;;;;5.02;100.00;98594.06;10294182;28;20547;-76
2022/03/03 19:22:50;;;;;;;9.35;5.93;;;;;;;4.92;100.00;98566.38;10293410;28;20051;-76
2022/03/03 19:27:51;;;;;;;8.80;5.40;;;;;;;4.25;100.00;98448.66;10293110;28;20034;-76
2022/03/03 19:38:11;;;;;;;9.07;5.07;;;;;;;4.85;100.00;98571.50;10293454;28;20039;-75
2022/03/03 19:43:12;;;;;;;6.80;4.70;;;;;;;4.10;100.00;98436.25;10292569;28;20054;-76
2022/03/03 19:48:13;;;;;;;7.32;4.68;;;;;;;4.83;100.00;98591.91;10291548;28;20039;-76
2022/03/03 19:53:14;;;;;;;8.27;4.80;;;;;;;4.75;100.00;98613.81;10292342;28;20054;-76
2022/03/03 19:58:15;;;;;;;7.95;4.88;;;;;;;4.65;100.00;98629.00;10292825;28;20039;-76
2022/03/03 20:03:16;;;;;;;9.45;5.72;;;;;;;4.64;100.00;98653.66;10291121;28;20038;-76
2022/03/03 20:08:17;;;;;;;8.65;5.30;;;;;;;4.60;100.00;98635.75;10290382;28;20475;-77
2022/03/03 20:13:18;;;;;;;10.50;5.55;;;;;;;4.55;100.00;98639.72;10291422;28;20086;-76
2022/03/03 20:18:20;;;;;;;10.35;5.40;;;;;;;4.45;100.00;98631.22;10292104;28;20046;-76
2022/03/03 20:23:21;;;;;;;12.50;5.53;;;;;;;4.47;100.00;98637.13;10292305;28;20034;-76
2022/03/03 20:28:22;;;;;;;10.35;5.50;;;;;;;4.37;100.00;98640.94;10291408;28;20126;-76
2022/03/03 20:33:23;;;;;;;9.77;5.05;;;;;;;3.61;100.00;98570.38;10290889;28;20069;-76
2022/03/03 20:38:24;;;;;;;7.03;4.45;;;;;;;4.17;100.00;98682.59;10292059;28;20121;-76
2022/03/03 20:43:25;;;;;;;7.63;4.55;;;;;;;4.28;100.00;98676.97;10291027;28;20137;-76
2022/03/03 20:48:26;;;;;;;8.75;4.70;;;;;;;4.20;100.00;98659.41;10291079;28;20089;-77
2022/03/03 20:53:27;;;;;;;8.50;4.75;;;;;;;4.12;100.00;98662.03;10294273;28;20069;-76
2022/03/03 20:58:28;;;;;;;9.85;4.75;;;;;;;4.22;100.00;98638.19;10330661;28;20105;-76
2022/03/03 21:03:29;;;;;;;10.43;4.30;;;;;;;4.34;100.00;98631.59;10293193;28;20073;-76
2022/03/03 21:08:29;;;;;;;6.93;4.32;;;;;;;4.12;100.00;98562.19;10305627;28;20039;-76
2022/03/03 21:13:30;;;;;;;6.25;3.78;;;;;;;4.03;100.00;98564.03;10290315;28;20043;-76
2022/03/03 21:18:31;;;;;;;10.60;4.20;;;;;;;4.00;100.00;98608.22;10297890;28;20058;-76
2022/03/03 21:23:32;;;;;;;7.00;4.25;;;;;;;3.47;100.00;98580.72;10297872;28;20042;-76
2022/03/03 21:28:34;;;;;;;7.55;3.80;;;;;;;3.70;100.00;98639.47;10297628;28;20485;-76
2022/03/03 21:33:35;;;;;;;5.68;3.47;;;;;;;3.02;100.00;98553.19;10296940;28;20045;-76
2022/03/03 21:38:36;;;;;;;7.32;3.83;;;;;;;3.64;100.00;98688.19;10297442;28;20037;-76
2022/03/03 21:43:37;;;;;;;7.72;4.35;;;;;;;3.68;100.00;98701.84;10312244;28;20192;-76
2022/03/03 21:48:38;;;;;;;7.43;4.05;;;;;;;3.67;100.00;98729.88;10297391;28;20035;-76
2022/03/03 21:53:40;;;;;;;14.18;4.35;;;;;;;3.44;100.00;98715.78;10311968;28;20057;-76
2022/03/03 21:58:41;;;;;;;8.98;4.50;;;;;;;3.89;100.00;98749.44;10296209;28;20042;-76
2022/03/03 22:03:42;;;;;;;9.15;5.03;;;;;;;3.57;100.00;98665.41;10310940;28;20104;-76
2022/03/03 22:08:43;;;;;;;8.57;5.03;;;;;;;4.06;100.00;98733.66;10296816;28;20122;-75
2022/03/03 22:13:44;;;;;;;9.13;5.60;;;;;;;4.26;100.00;98757.81;10296429;28;20034;-76
2022/03/03 22:18:45;;;;;;;9.63;5.72;;;;;;;3.57;100.00;98620.78;10295447;28;20050;-76
2022/03/03 22:23:46;;;;;;;13.27;5.38;;;;;;;4.33;100.00;98719.31;10295289;28;20034;-76
2022/03/03 22:28:47;;;;;;;13.90;6.72;;;;;;;4.41;100.00;98708.00;10293983;28;20035;-76
2022/03/03 22:33:48;;;;;;;11.25;6.43;;;;;;;3.96;100.00;98596.41;10295610;28;20410;-76
2022/03/03 22:38:49;;;;;;;15.13;7.88;;;;;;;4.60;100.00;98683.09;10294538;28;20125;-77
2022/03/03 22:43:50;;;;;;;12.95;7.90;;;;;;;3.57;100.00;98524.44;10293427;28;20050;-77
2022/03/03 22:48:51;;;;;;;13.85;7.68;;;;;;;3.77;100.00;98568.69;10293223;28;20039;-76
2022/03/03 22:53:53;;;;;;;13.32;8.15;;;;;;;4.49;100.00;98714.03;10309332;28;20058;-77
2022/03/03 22:58:53;;;;;;;15.10;8.75;;;;;;;3.71;100.00;98601.72;10293893;28;20383;-76
2022/03/03 23:09:14;;;;;;;20.75;11.98;;;;;;;4.72;100.00;98715.94;10293408;28;20034;-77
2022/03/03 23:14:14;;;;;;;21.25;12.55;;;;;;;5.08;100.00;98733.88;10294006;28;20046;-76
2022/03/03 23:19:15;;;;;;;24.33;13.60;;;;;;;4.95;100.00;98676.53;10293780;28;20125;-76
2022/03/03 23:24:17;;;;;;;21.95;13.35;;;;;;;5.28;100.00;98716.66;10294238;28;20038;-77
2022/03/03 23:29:19;;;;;;;21.27;12.48;;;;;;;5.41;100.00;98735.31;10292733;28;20101;-76
2022/03/03 23:34:20;;;;;;;24.60;15.02;;;;;;;5.53;100.00;98737.56;10293064;28;20125;-76